createdAt,value
2023-02-15T00:01:48.038Z,-3.31
2023-02-15T00:04:51.402Z,-3.29
2023-02-15T00:07:54.452Z,-3.21
2023-02-15T00:11:13.270Z,-3.30
2023-02-15T00:14:22.646Z,-3.29
2023-02-15T00:17:28.915Z,-3.30
2023-02-15T00:20:34.022Z,-3.38
2023-02-15T00:23:40.931Z,-3.29
2023-02-15T00:26:45.114Z,-3.32
2023-02-15T00:29:48.705Z,-3.38
2023-02-15T00:32:51.981Z,-3.41
2023-02-15T00:36:00.170Z,-3.41
2023-02-15T00:39:04.013Z,-3.52
2023-02-15T00:42:07.348Z,-3.51
2023-02-15T00:45:13.734Z,-3.44
2023-02-15T00:48:19.102Z,-3.53
2023-02-15T00:51:22.107Z,-3.55
2023-02-15T00:54:25.407Z,-3.60
2023-02-15T00:57:28.290Z,-3.63
2023-02-15T01:00:38.083Z,-3.71
2023-02-15T01:03:43.391Z,-3.67
2023-02-15T01:06:46.641Z,-3.69
2023-02-15T01:09:54.355Z,-3.74
2023-02-15T01:13:12.793Z,-3.73
2023-02-15T01:16:33.570Z,-3.70
2023-02-15T01:19:39.049Z,-3.71
2023-02-15T01:22:45.424Z,-3.68
2023-02-15T01:25:49.001Z,-3.65
2023-02-15T01:28:54.330Z,-3.67
2023-02-15T01:31:59.466Z,-3.72
2023-02-15T01:35:27.721Z,-3.77
2023-02-15T01:38:33.973Z,-3.83
2023-02-15T01:41:39.048Z,-3.81
2023-02-15T01:44:48.462Z,-3.83
2023-02-15T01:48:06.559Z,-3.83
2023-02-15T01:51:10.246Z,-3.85
2023-02-15T01:54:28.697Z,-3.76
2023-02-15T01:57:32.564Z,-3.78
2023-02-15T02:00:38.022Z,-3.83
2023-02-15T02:03:49.821Z,-3.78
2023-02-15T02:06:58.397Z,-3.83
2023-02-15T02:10:02.788Z,-3.82
2023-02-15T02:13:44.265Z,-3.85
2023-02-15T02:17:47.583Z,-3.93
2023-02-15T02:21:35.966Z,-3.93
2023-02-15T02:25:15.827Z,-4.01
2023-02-15T02:28:54.042Z,-4.09
2023-02-15T02:32:56.041Z,-4.13
2023-02-15T02:36:52.808Z,-4.08
2023-02-15T02:40:32.947Z,-4.14
2023-02-15T02:43:50.580Z,-4.01
2023-02-15T02:47:25.422Z,-4.01
2023-02-15T02:51:01.171Z,-4.03
2023-02-15T02:54:18.966Z,-4.12
2023-02-15T02:57:41.222Z,-4.17
2023-02-15T03:01:14.096Z,-4.20
2023-02-15T03:04:36.878Z,-4.22
2023-02-15T03:08:23.053Z,-4.22
2023-02-15T03:11:40.056Z,-4.26
2023-02-15T03:15:08.479Z,-4.25
2023-02-15T03:18:53.863Z,-4.22
2023-02-15T03:22:26.547Z,-4.23
2023-02-15T03:26:00.042Z,-4.34
2023-02-15T03:29:23.401Z,-4.40
2023-02-15T03:32:42.439Z,-4.39
2023-02-15T03:36:12.666Z,-4.35
2023-02-15T03:39:56.934Z,-4.21
2023-02-15T03:43:23.856Z,-4.12
2023-02-15T03:46:53.600Z,-3.97
2023-02-15T03:50:37.896Z,-4.02
2023-02-15T03:53:58.349Z,-4.09
2023-02-15T03:57:56.503Z,-4.11
2023-02-15T04:01:44.733Z,-4.23
2023-02-15T04:05:05.100Z,-4.26
2023-02-15T04:08:58.743Z,-4.28
2023-02-15T04:12:20.970Z,-4.34
2023-02-15T04:16:05.606Z,-4.30
2023-02-15T04:19:40.678Z,-4.39
2023-02-15T04:23:18.620Z,-4.30
2023-02-15T04:26:35.705Z,-4.37
2023-02-15T04:29:52.596Z,-4.38
2023-02-15T04:33:28.654Z,-4.38
2023-02-15T04:36:51.287Z,-4.49
2023-02-15T04:40:10.729Z,-4.39
2023-02-15T04:43:45.188Z,-4.52
2023-02-15T04:47:02.857Z,-4.50
2023-02-15T04:50:38.268Z,-4.56
2023-02-15T04:53:58.020Z,-4.48
2023-02-15T04:57:33.590Z,-4.58
2023-02-15T05:01:04.828Z,-4.67
2023-02-15T05:04:37.250Z,-4.64
2023-02-15T05:07:55.020Z,-4.67
2023-02-15T05:11:12.740Z,-4.74
2023-02-15T05:14:47.449Z,-4.68
2023-02-15T05:18:23.481Z,-4.59
2023-02-15T05:21:40.827Z,-4.59
2023-02-15T05:25:30.197Z,-4.65
2023-02-15T05:28:47.527Z,-4.63
2023-02-15T05:32:05.539Z,-4.71
2023-02-15T05:35:38.237Z,-4.76
2023-02-15T05:39:14.223Z,-4.79
2023-02-15T05:42:34.289Z,-4.79
2023-02-15T05:45:56.950Z,-4.84
2023-02-15T05:49:32.449Z,-4.78
2023-02-15T05:53:07.653Z,-4.86
2023-02-15T05:56:28.235Z,-4.87
2023-02-15T06:00:07.995Z,-4.83
2023-02-15T06:03:29.770Z,-4.77
2023-02-15T06:07:05.953Z,-4.72
2023-02-15T06:10:28.198Z,-4.62
2023-02-15T06:13:48.499Z,-4.53
2023-02-15T06:17:23.060Z,-4.48
2023-02-15T06:20:45.576Z,-4.32
2023-02-15T06:24:20.089Z,-4.26
2023-02-15T06:27:55.850Z,-4.13
2023-02-15T06:31:31.876Z,-4.08
2023-02-15T06:34:50.550Z,-3.99
2023-02-15T06:38:10.089Z,-3.94
2023-02-15T06:41:27.711Z,-3.85
2023-02-15T06:44:47.023Z,-3.65
2023-02-15T06:48:20.164Z,-3.45
2023-02-15T06:51:37.754Z,-3.29
2023-02-15T06:55:08.693Z,-3.00
2023-02-15T06:58:46.955Z,-2.76
2023-02-15T07:02:19.145Z,-2.50
2023-02-15T07:05:49.039Z,-2.25
2023-02-15T07:09:28.858Z,-2.03
2023-02-15T07:13:08.865Z,-1.79
2023-02-15T07:16:41.179Z,-1.49
2023-02-15T07:20:03.920Z,-1.24
2023-02-15T07:23:26.640Z,-1.08
2023-02-15T07:27:03.292Z,-0.87
2023-02-15T07:30:38.792Z,-0.69
2023-02-15T07:33:58.534Z,-0.57
2023-02-15T07:37:31.188Z,-0.49
2023-02-15T07:41:08.351Z,-0.38
2023-02-15T07:44:35.545Z,-0.25
2023-02-15T07:48:08.671Z,-0.15
2023-02-15T07:51:35.525Z,0.01
2023-02-15T07:55:15.809Z,0.06
2023-02-15T07:58:53.106Z,0.13
2023-02-15T08:02:17.501Z,0.28
2023-02-15T08:05:50.652Z,0.34
2023-02-15T08:09:09.853Z,0.43
2023-02-15T08:12:32.204Z,0.52
2023-02-15T08:16:05.953Z,0.72
2023-02-15T08:19:38.890Z,0.74
2023-02-15T08:23:11.167Z,1.17
2023-02-15T08:26:33.516Z,1.35
2023-02-15T08:30:09.678Z,1.48
2023-02-15T08:33:31.650Z,1.60
2023-02-15T08:37:07.323Z,1.67
2023-02-15T08:40:25.294Z,1.75
2023-02-15T08:44:03.020Z,1.84
2023-02-15T08:47:20.683Z,1.94
2023-02-15T08:50:47.613Z,2.24
2023-02-15T08:54:22.796Z,2.44
2023-02-15T08:57:45.976Z,2.53
2023-02-15T09:01:23.945Z,2.79
2023-02-15T09:04:56.593Z,2.92
2023-02-15T09:08:29.930Z,3.11
2023-02-15T09:12:03.639Z,3.10
2023-02-15T09:15:36.293Z,2.85
2023-02-15T09:19:09.661Z,3.05
2023-02-15T09:22:42.284Z,3.56
2023-02-15T09:26:21.159Z,3.82
2023-02-15T09:29:47.638Z,3.91
2023-02-15T09:33:27.088Z,3.96
2023-02-15T09:36:54.811Z,4.03
2023-02-15T09:40:24.661Z,3.93
2023-02-15T09:44:14.702Z,4.42
2023-02-15T09:48:13.602Z,4.78
2023-02-15T09:52:16.123Z,5.10
2023-02-15T09:56:21.028Z,5.48
2023-02-15T10:00:14.598Z,4.75
2023-02-15T10:04:08.726Z,5.51
2023-02-15T10:07:44.639Z,5.32
2023-02-15T10:11:24.748Z,5.42
2023-02-15T10:15:25.138Z,5.64
2023-02-15T10:19:10.690Z,5.38
2023-02-15T10:23:20.403Z,5.46
2023-02-15T10:27:03.990Z,5.85
2023-02-15T10:30:46.129Z,5.99
2023-02-15T10:34:38.649Z,6.01
2023-02-15T10:38:16.012Z,5.73
2023-02-15T10:42:10.950Z,5.41
2023-02-15T10:46:06.234Z,5.36
2023-02-15T10:50:01.282Z,5.31
2023-02-15T10:54:05.383Z,5.48
2023-02-15T10:58:03.543Z,5.54
2023-02-15T11:01:58.644Z,5.73
2023-02-15T11:06:01.757Z,5.82
2023-02-15T11:09:40.375Z,5.96
2023-02-15T11:13:19.677Z,5.86
2023-02-15T11:17:32.072Z,6.16
2023-02-15T11:21:22.997Z,6.24
2023-02-15T11:24:48.040Z,6.63
2023-02-15T11:28:44.281Z,8.00
2023-02-15T11:32:24.813Z,8.48
2023-02-15T11:36:33.671Z,9.47
2023-02-15T11:40:29.559Z,8.19
2023-02-15T11:44:40.574Z,8.98
2023-02-15T11:48:18.919Z,10.49
2023-02-15T11:52:06.222Z,11.13
2023-02-15T11:55:40.896Z,11.53
2023-02-15T11:59:22.887Z,10.57
2023-02-15T12:02:59.533Z,10.73
2023-02-15T12:06:42.401Z,10.16
2023-02-15T12:10:36.026Z,10.18
2023-02-15T12:14:12.976Z,9.73
2023-02-15T12:17:57.828Z,9.26
2023-02-15T12:21:40.980Z,9.66
2023-02-15T12:25:27.445Z,9.30
2023-02-15T12:29:03.299Z,9.36
2023-02-15T12:32:50.166Z,9.29
2023-02-15T12:36:31.195Z,9.22
2023-02-15T12:40:31.685Z,9.18
2023-02-15T12:44:07.489Z,8.77
2023-02-15T12:47:39.824Z,9.12
2023-02-15T12:51:20.791Z,9.18
2023-02-15T12:55:23.583Z,9.08
2023-02-15T12:59:06.308Z,8.71
2023-02-15T13:02:47.450Z,8.50
2023-02-15T13:06:21.910Z,8.85
2023-02-15T13:09:54.724Z,9.07
2023-02-15T13:13:44.042Z,9.37
2023-02-15T13:17:11.018Z,9.27
2023-02-15T13:21:01.625Z,9.42
2023-02-15T13:25:01.800Z,9.29
2023-02-15T13:29:09.751Z,9.41
2023-02-15T13:32:41.895Z,9.00
2023-02-15T13:36:21.449Z,8.79
2023-02-15T13:40:00.403Z,8.69
2023-02-15T13:43:59.577Z,9.10
2023-02-15T13:47:47.699Z,9.49
2023-02-15T13:52:17.376Z,9.56
2023-02-15T13:56:07.444Z,9.29
2023-02-15T13:59:50.244Z,8.94
2023-02-15T14:03:49.435Z,9.39
2023-02-15T14:07:43.312Z,9.06
2023-02-15T14:11:24.933Z,9.09
2023-02-15T14:15:35.081Z,9.52
2023-02-15T14:19:17.572Z,9.54
2023-02-15T14:23:02.359Z,9.54
2023-02-15T14:27:12.101Z,9.24
2023-02-15T14:30:41.734Z,9.47
2023-02-15T14:34:31.343Z,9.44
2023-02-15T14:38:22.757Z,9.25
2023-02-15T14:42:03.590Z,9.01
2023-02-15T14:46:01.791Z,8.23
2023-02-15T14:49:41.120Z,8.47
2023-02-15T14:53:36.904Z,7.84
2023-02-15T14:57:15.873Z,7.62
2023-02-15T15:00:49.261Z,7.53
2023-02-15T15:04:14.593Z,7.14
2023-02-15T15:08:00.239Z,7.38
2023-02-15T15:11:50.438Z,7.10
2023-02-15T15:15:29.650Z,6.87
2023-02-15T15:19:11.871Z,6.99
2023-02-15T15:22:51.142Z,6.70
2023-02-15T15:26:41.848Z,6.53
2023-02-15T15:30:20.294Z,6.40
2023-02-15T15:34:41.202Z,6.25
2023-02-15T15:38:38.484Z,6.09
2023-02-15T15:42:37.560Z,5.88
2023-02-15T15:46:47.214Z,5.66
2023-02-15T15:50:23.902Z,5.53
2023-02-15T15:53:59.118Z,5.27
2023-02-15T15:57:45.394Z,5.05
2023-02-15T16:01:27.228Z,4.84
2023-02-15T16:05:10.125Z,4.66
2023-02-15T16:08:47.763Z,4.48
2023-02-15T16:12:23.693Z,4.23
2023-02-15T16:16:00.892Z,4.02
2023-02-15T16:19:45.456Z,3.81
2023-02-15T16:23:27.235Z,3.58
2023-02-15T16:27:19.161Z,3.36
2023-02-15T16:31:15.579Z,3.13
2023-02-15T16:35:03.019Z,2.88
2023-02-15T16:38:45.597Z,2.67
2023-02-15T16:42:19.629Z,2.46
2023-02-15T16:46:04.433Z,2.29
2023-02-15T16:49:46.576Z,2.08
2023-02-15T16:53:27.966Z,1.93
2023-02-15T16:57:05.370Z,1.77
2023-02-15T17:00:44.589Z,1.58
2023-02-15T17:04:24.301Z,1.43
2023-02-15T17:08:03.338Z,1.33
2023-02-15T17:11:45.392Z,1.19
2023-02-15T17:15:33.347Z,1.10
2023-02-15T17:19:17.648Z,0.97
2023-02-15T17:23:01.322Z,0.87
2023-02-15T17:26:39.239Z,0.77
2023-02-15T17:30:41.698Z,0.75
2023-02-15T17:34:43.113Z,0.57
2023-02-15T17:38:21.839Z,0.44
2023-02-15T17:41:54.665Z,0.32
2023-02-15T17:45:34.831Z,0.20
2023-02-15T17:49:29.731Z,0.12
2023-02-15T17:53:04.605Z,0.04
2023-02-15T17:56:41.201Z,-0.04
2023-02-15T18:00:35.238Z,-0.14
2023-02-15T18:04:34.698Z,-0.23
2023-02-15T18:08:30.555Z,-0.29
2023-02-15T18:15:48.905Z,-0.41
2023-02-15T18:19:26.216Z,-0.53
2023-02-15T18:23:06.731Z,-0.62
2023-02-15T18:26:39.893Z,-0.69
2023-02-15T18:30:22.448Z,-0.73
2023-02-15T18:33:36.672Z,-0.81
2023-02-15T18:37:06.052Z,-0.83
2023-02-15T18:40:22.584Z,-0.92
2023-02-15T18:43:25.451Z,-1.03
2023-02-15T18:46:35.035Z,-1.06
2023-02-15T18:50:20.276Z,-1.10
2023-02-15T18:53:25.108Z,-1.16
2023-02-15T18:56:57.341Z,-1.22
2023-02-15T19:00:01.216Z,-1.29
2023-02-15T19:03:08.579Z,-1.32
2023-02-15T19:06:15.696Z,-1.26
2023-02-15T19:09:26.583Z,-1.38
2023-02-15T19:12:34.136Z,-1.45
2023-02-15T19:15:45.718Z,-1.46
2023-02-15T19:18:49.728Z,-1.54
2023-02-15T19:21:57.327Z,-1.61
2023-02-15T19:25:33.978Z,-1.64
2023-02-15T19:28:37.853Z,-1.68
2023-02-15T19:31:43.478Z,-1.77
2023-02-15T19:34:48.890Z,-1.81
2023-02-15T19:37:54.759Z,-1.84
2023-02-15T19:41:07.033Z,-1.88
2023-02-15T19:44:12.821Z,-1.89
2023-02-15T19:47:18.482Z,-1.96
2023-02-15T19:50:29.506Z,-1.90
2023-02-15T19:53:35.603Z,-1.92
2023-02-15T19:56:42.377Z,-2.01
2023-02-15T19:59:46.687Z,-2.06
2023-02-15T20:02:53.115Z,-2.11
2023-02-15T20:06:05.602Z,-2.18
2023-02-15T20:09:35.461Z,-2.25
2023-02-15T20:12:47.565Z,-2.31
2023-02-15T20:16:11.006Z,-2.21
2023-02-15T20:19:35.212Z,-2.23
2023-02-15T20:22:40.941Z,-2.29
2023-02-15T20:25:49.620Z,-2.35
2023-02-15T20:28:54.958Z,-2.39
2023-02-15T20:32:03.477Z,-2.34
2023-02-15T20:35:07.359Z,-2.27
2023-02-15T20:38:17.432Z,-2.42
2023-02-15T20:41:38.980Z,-2.48
2023-02-15T20:44:44.055Z,-2.54
2023-02-15T20:47:50.800Z,-2.55
2023-02-15T20:50:55.736Z,-2.58
2023-02-15T20:54:00.625Z,-2.46
2023-02-15T20:57:28.045Z,-2.59
2023-02-15T21:00:33.283Z,-2.41
2023-02-15T21:03:39.628Z,-2.45
2023-02-15T21:06:45.503Z,-2.46
2023-02-15T21:10:20.957Z,-2.59
2023-02-15T21:13:33.039Z,-2.69
2023-02-15T21:16:40.821Z,-2.72
2023-02-15T21:19:44.014Z,-2.79
2023-02-15T21:22:49.506Z,-2.78
2023-02-15T21:25:56.696Z,-2.81
2023-02-15T21:29:03.928Z,-2.86
2023-02-15T21:32:10.955Z,-2.91
2023-02-15T21:35:18.139Z,-2.87
2023-02-15T21:38:31.329Z,-2.89
2023-02-15T21:42:34.910Z,-2.79
2023-02-15T21:45:56.639Z,-2.89
2023-02-15T21:49:04.357Z,-2.92
2023-02-15T21:52:12.681Z,-2.97
2023-02-15T21:55:19.838Z,-2.96
2023-02-15T21:58:27.429Z,-2.96
2023-02-15T22:01:34.191Z,-2.92
2023-02-15T22:04:37.159Z,-3.05
2023-02-15T22:07:42.482Z,-2.94
2023-02-15T22:10:49.997Z,-2.92
2023-02-15T22:13:55.253Z,-3.01
2023-02-15T22:17:01.888Z,-2.95
2023-02-15T22:20:21.871Z,-2.98
2023-02-15T22:23:25.745Z,-3.00
2023-02-15T22:26:29.168Z,-2.99
2023-02-15T22:29:33.285Z,-3.03
2023-02-15T22:32:57.905Z,-3.18
2023-02-15T22:36:03.943Z,-3.23
2023-02-15T22:39:07.521Z,-3.15
2023-02-15T22:42:21.338Z,-3.17
2023-02-15T22:45:25.570Z,-3.16
2023-02-15T22:48:29.294Z,-3.24
2023-02-15T22:51:42.292Z,-3.29
2023-02-15T22:54:46.398Z,-3.27
2023-02-15T22:57:52.000Z,-3.37
2023-02-15T23:00:54.967Z,-3.41
2023-02-15T23:03:58.086Z,-3.44
2023-02-15T23:07:12.101Z,-3.28
2023-02-15T23:10:21.280Z,-3.33
2023-02-15T23:13:31.227Z,-3.36
2023-02-15T23:16:37.391Z,-3.35
2023-02-15T23:19:40.464Z,-3.39
2023-02-15T23:22:46.388Z,-3.44
2023-02-15T23:25:49.281Z,-3.45
2023-02-15T23:28:57.318Z,-3.54
2023-02-15T23:32:00.585Z,-3.48
2023-02-15T23:35:18.080Z,-3.48
2023-02-15T23:38:26.699Z,-3.45
2023-02-15T23:41:33.385Z,-3.49
2023-02-15T23:44:36.692Z,-3.57
2023-02-15T23:48:01.417Z,-3.64
2023-02-15T23:51:06.650Z,-3.69
2023-02-15T23:54:09.691Z,-3.75
2023-02-15T23:57:23.946Z,-3.77
